createdAt,value
2022-07-30T00:00:40.150Z,21.58
2022-07-30T00:03:08.683Z,21.55
2022-07-30T00:05:37.170Z,21.46
2022-07-30T00:08:05.993Z,21.39
2022-07-30T00:10:34.440Z,21.42
2022-07-30T00:13:02.979Z,21.39
2022-07-30T00:15:33.047Z,21.36
2022-07-30T00:18:01.620Z,21.35
2022-07-30T00:20:30.415Z,21.33
2022-07-30T00:23:00.741Z,21.32
2022-07-30T00:25:29.117Z,21.31
2022-07-30T00:27:57.756Z,21.31
2022-07-30T00:30:26.766Z,21.28
2022-07-30T00:32:56.658Z,21.27
2022-07-30T00:35:25.128Z,21.22
2022-07-30T00:37:56.130Z,21.18
2022-07-30T00:40:25.150Z,21.19
2022-07-30T00:42:53.682Z,21.17
2022-07-30T00:45:22.106Z,21.16
2022-07-30T00:47:50.820Z,21.16
2022-07-30T00:50:20.731Z,21.12
2022-07-30T00:52:50.054Z,21.09
2022-07-30T00:55:19.265Z,21.06
2022-07-30T00:57:47.857Z,20.99
2022-07-30T01:00:18.563Z,21.05
2022-07-30T01:02:47.366Z,21.02
2022-07-30T01:05:16.166Z,21.02
2022-07-30T01:07:46.503Z,21.00
2022-07-30T01:10:16.807Z,20.99
2022-07-30T01:12:47.315Z,20.98
2022-07-30T01:15:17.381Z,20.96
2022-07-30T01:17:52.705Z,20.94
2022-07-30T01:20:27.844Z,20.93
2022-07-30T01:23:06.535Z,20.91
2022-07-30T01:25:55.664Z,20.89
2022-07-30T01:28:27.895Z,20.88
2022-07-30T01:30:58.624Z,20.85
2022-07-30T01:33:29.111Z,20.84
2022-07-30T01:35:59.384Z,20.83
2022-07-30T01:38:35.163Z,20.83
2022-07-30T01:41:08.051Z,20.81
2022-07-30T01:43:37.677Z,20.80
2022-07-30T01:46:07.386Z,20.80
2022-07-30T01:48:38.704Z,20.77
2022-07-30T01:51:08.149Z,20.76
2022-07-30T01:53:40.875Z,20.76
2022-07-30T01:56:13.580Z,20.74
2022-07-30T01:58:48.209Z,20.73
2022-07-30T02:01:17.146Z,20.71
2022-07-30T02:03:45.985Z,20.72
2022-07-30T02:06:20.000Z,20.69
2022-07-30T02:08:55.797Z,20.71
2022-07-30T02:11:39.615Z,20.71
2022-07-30T02:14:12.819Z,20.71
2022-07-30T02:16:44.365Z,20.73
2022-07-30T02:19:15.946Z,20.71
2022-07-30T02:21:50.493Z,20.69
2022-07-30T02:24:23.746Z,20.68
2022-07-30T02:26:58.355Z,20.65
2022-07-30T02:29:27.653Z,20.63
2022-07-30T02:31:59.919Z,20.61
2022-07-30T02:34:31.392Z,20.60
2022-07-30T02:37:02.746Z,20.59
2022-07-30T02:39:33.077Z,20.57
2022-07-30T02:42:05.271Z,20.56
2022-07-30T02:44:34.772Z,20.55
2022-07-30T02:47:05.415Z,20.53
2022-07-30T02:49:37.097Z,20.51
2022-07-30T02:52:09.333Z,20.50
2022-07-30T02:54:40.183Z,20.48
2022-07-30T02:57:11.164Z,20.44
2022-07-30T02:59:42.659Z,20.44
2022-07-30T03:02:14.882Z,20.42
2022-07-30T03:04:44.881Z,20.40
2022-07-30T03:07:18.677Z,20.40
2022-07-30T03:09:52.121Z,20.36
2022-07-30T03:12:23.974Z,20.36
2022-07-30T03:14:52.835Z,20.33
2022-07-30T03:17:23.343Z,20.33
2022-07-30T03:19:52.467Z,20.31
2022-07-30T03:22:22.805Z,20.29
2022-07-30T03:24:53.010Z,20.28
2022-07-30T03:27:24.938Z,20.27
2022-07-30T03:29:56.177Z,20.25
2022-07-30T03:32:26.215Z,20.27
2022-07-30T03:34:56.118Z,20.24
2022-07-30T03:37:27.221Z,20.23
2022-07-30T03:39:58.671Z,20.23
2022-07-30T03:42:28.983Z,20.23
2022-07-30T03:44:59.413Z,20.21
2022-07-30T03:47:29.338Z,20.21
2022-07-30T03:49:58.066Z,20.21
2022-07-30T03:52:27.627Z,20.20
2022-07-30T03:54:56.504Z,20.18
2022-07-30T03:57:25.277Z,20.19
2022-07-30T03:59:55.357Z,20.18
2022-07-30T04:02:23.855Z,20.16
2022-07-30T04:04:52.878Z,20.13
2022-07-30T04:07:21.414Z,20.10
2022-07-30T04:09:49.948Z,20.00
2022-07-30T04:12:18.415Z,20.03
2022-07-30T04:14:47.300Z,20.04
2022-07-30T04:17:23.137Z,20.04
2022-07-30T04:19:55.227Z,19.99
2022-07-30T04:22:29.749Z,20.02
2022-07-30T04:25:00.111Z,20.05
2022-07-30T04:27:29.578Z,20.06
2022-07-30T04:29:58.485Z,19.91
2022-07-30T04:32:30.025Z,19.90
2022-07-30T04:34:59.145Z,19.91
2022-07-30T04:37:29.363Z,19.90
2022-07-30T04:39:58.984Z,19.94
2022-07-30T04:42:28.984Z,19.96
2022-07-30T04:44:58.388Z,20.00
2022-07-30T04:47:28.513Z,19.95
2022-07-30T04:49:58.676Z,20.00
2022-07-30T04:52:27.856Z,20.01
2022-07-30T04:54:59.387Z,20.02
2022-07-30T04:57:30.022Z,20.01
2022-07-30T04:59:58.627Z,20.07
2022-07-30T05:02:31.693Z,20.13
2022-07-30T05:05:01.445Z,20.16
2022-07-30T05:07:33.717Z,20.22
2022-07-30T05:10:02.361Z,20.27
2022-07-30T05:12:34.654Z,20.30
2022-07-30T05:15:03.167Z,20.33
2022-07-30T05:17:33.342Z,20.36
2022-07-30T05:20:02.045Z,20.33
2022-07-30T05:22:31.376Z,20.36
2022-07-30T05:25:00.189Z,20.33
2022-07-30T05:27:28.981Z,20.34
2022-07-30T05:29:57.447Z,20.40
2022-07-30T05:32:27.130Z,20.41
2022-07-30T05:34:58.826Z,20.45
2022-07-30T05:37:27.354Z,20.48
2022-07-30T05:40:02.324Z,20.50
2022-07-30T05:42:31.490Z,20.56
2022-07-30T05:45:00.875Z,20.61
2022-07-30T05:47:29.335Z,20.56
2022-07-30T05:50:04.207Z,20.54
2022-07-30T05:52:33.599Z,20.57
2022-07-30T05:55:02.153Z,20.65
2022-07-30T05:57:30.744Z,20.71
2022-07-30T05:59:59.349Z,20.76
2022-07-30T06:02:27.893Z,20.83
2022-07-30T06:04:56.457Z,20.78
2022-07-30T06:07:26.360Z,20.91
2022-07-30T06:09:54.821Z,20.95
2022-07-30T06:12:23.523Z,21.00
2022-07-30T06:14:52.058Z,21.01
2022-07-30T06:17:20.515Z,20.97
2022-07-30T06:19:49.014Z,20.98
2022-07-30T06:22:20.699Z,21.01
2022-07-30T06:24:52.709Z,21.06
2022-07-30T06:27:21.111Z,20.99
2022-07-30T06:29:49.581Z,21.09
2022-07-30T06:32:19.443Z,21.05
2022-07-30T06:34:47.880Z,21.06
2022-07-30T06:37:17.242Z,21.13
2022-07-30T06:39:57.946Z,21.37
2022-07-30T06:42:29.149Z,21.66
2022-07-30T06:44:57.753Z,21.86
2022-07-30T06:47:29.334Z,21.92
2022-07-30T06:49:58.434Z,21.97
2022-07-30T06:52:26.933Z,21.98
2022-07-30T06:54:55.653Z,22.11
2022-07-30T06:57:24.339Z,22.18
2022-07-30T06:59:56.236Z,22.23
2022-07-30T07:02:26.712Z,22.25
2022-07-30T07:05:02.115Z,22.33
2022-07-30T07:07:41.164Z,22.25
2022-07-30T07:10:11.434Z,22.30
2022-07-30T07:12:39.899Z,22.40
2022-07-30T07:15:11.144Z,22.46
2022-07-30T07:17:40.724Z,22.41
2022-07-30T07:20:10.222Z,22.24
2022-07-30T07:22:50.178Z,22.35
2022-07-30T07:25:19.048Z,22.25
2022-07-30T07:28:11.740Z,22.15
2022-07-30T07:30:38.414Z,22.34
2022-07-30T07:33:07.102Z,22.41
2022-07-30T07:35:45.537Z,22.54
2022-07-30T07:38:17.835Z,22.58
2022-07-30T07:40:47.504Z,22.55
2022-07-30T07:43:16.867Z,22.64
2022-07-30T07:45:48.163Z,22.74
2022-07-30T07:48:17.183Z,22.84
2022-07-30T07:50:45.845Z,22.87
2022-07-30T07:53:14.557Z,22.99
2022-07-30T07:55:43.517Z,23.10
2022-07-30T07:58:18.182Z,23.18
2022-07-30T08:00:56.045Z,23.20
2022-07-30T08:03:25.655Z,23.29
2022-07-30T08:06:05.419Z,23.39
2022-07-30T08:08:37.289Z,23.42
2022-07-30T08:11:07.729Z,23.45
2022-07-30T08:13:52.331Z,23.41
2022-07-30T08:16:24.172Z,23.53
2022-07-30T08:18:52.767Z,23.59
2022-07-30T08:21:21.200Z,23.62
2022-07-30T08:23:50.070Z,23.68
2022-07-30T08:26:18.521Z,23.72
2022-07-30T08:28:47.036Z,23.76
2022-07-30T08:31:15.916Z,23.82
2022-07-30T08:33:46.121Z,23.86
2022-07-30T08:36:14.609Z,23.83
2022-07-30T08:38:43.155Z,23.88
2022-07-30T08:41:11.720Z,23.94
2022-07-30T08:43:41.499Z,24.03
2022-07-30T08:46:14.367Z,24.06
2022-07-30T08:48:43.803Z,24.04
2022-07-30T08:51:14.846Z,24.10
2022-07-30T08:53:44.776Z,24.20
2022-07-30T08:56:13.526Z,24.12
2022-07-30T08:58:43.553Z,24.04
2022-07-30T09:01:11.953Z,23.92
2022-07-30T09:03:44.536Z,23.90
2022-07-30T09:06:14.626Z,23.95
2022-07-30T09:08:43.232Z,24.01
2022-07-30T09:11:11.709Z,24.04
2022-07-30T09:13:42.565Z,23.96
2022-07-30T09:16:22.494Z,23.97
2022-07-30T09:18:52.406Z,24.03
2022-07-30T09:21:24.805Z,23.88
2022-07-30T09:24:01.404Z,23.83
2022-07-30T09:26:30.275Z,23.73
2022-07-30T09:29:17.596Z,23.44
2022-07-30T09:31:58.078Z,23.39
2022-07-30T09:34:31.533Z,23.20
2022-07-30T09:37:03.664Z,23.20
2022-07-30T09:39:34.308Z,23.15
2022-07-30T09:42:04.316Z,23.02
2022-07-30T09:44:33.573Z,22.86
2022-07-30T09:47:03.156Z,22.68
2022-07-30T09:49:34.418Z,22.66
2022-07-30T09:52:04.459Z,22.63
2022-07-30T09:54:51.309Z,22.74
2022-07-30T09:57:25.915Z,22.80
2022-07-30T09:59:56.938Z,22.80
2022-07-30T10:02:35.377Z,22.81
2022-07-30T10:05:16.742Z,22.73
2022-07-30T10:07:54.236Z,22.75
2022-07-30T10:10:25.712Z,22.68
2022-07-30T10:12:56.557Z,22.54
2022-07-30T10:15:29.316Z,22.31
2022-07-30T10:17:58.476Z,22.07
2022-07-30T10:20:27.418Z,21.72
2022-07-30T10:22:57.832Z,21.77
2022-07-30T10:25:28.462Z,21.94
2022-07-30T10:27:58.089Z,21.84
2022-07-30T10:30:29.164Z,21.58
2022-07-30T10:33:00.166Z,21.32
2022-07-30T10:35:34.218Z,21.36
2022-07-30T10:38:13.671Z,21.46
2022-07-30T10:40:49.762Z,21.54
2022-07-30T10:44:01.108Z,21.51
2022-07-30T10:46:45.074Z,21.44
2022-07-30T10:49:18.580Z,21.42
2022-07-30T10:51:50.121Z,21.53
2022-07-30T10:54:42.893Z,21.51
2022-07-30T10:57:22.703Z,21.44
2022-07-30T11:00:12.281Z,21.25
2022-07-30T11:03:15.944Z,20.94
2022-07-30T11:05:45.937Z,20.93
2022-07-30T11:08:48.669Z,21.02
2022-07-30T11:12:02.140Z,21.06
2022-07-30T11:14:57.046Z,21.03
2022-07-30T11:17:25.968Z,20.82
2022-07-30T11:20:13.295Z,20.88
2022-07-30T11:22:44.838Z,20.80
2022-07-30T11:25:51.658Z,20.64
2022-07-30T11:28:49.561Z,20.73
2022-07-30T11:31:37.039Z,20.84
2022-07-30T11:34:29.146Z,20.92
2022-07-30T11:37:19.322Z,21.03
2022-07-30T11:40:13.319Z,21.06
2022-07-30T11:42:44.403Z,21.10
2022-07-30T11:45:29.871Z,21.13
2022-07-30T11:48:01.571Z,20.97
2022-07-30T11:50:32.382Z,20.72
2022-07-30T11:53:03.101Z,20.75
2022-07-30T11:55:33.094Z,20.81
2022-07-30T11:58:03.520Z,20.97
2022-07-30T12:00:41.845Z,21.08
2022-07-30T12:03:15.665Z,21.19
2022-07-30T12:05:45.664Z,21.27
2022-07-30T12:08:35.929Z,21.27
2022-07-30T12:11:05.196Z,21.35
2022-07-30T12:13:45.748Z,21.41
2022-07-30T12:16:18.122Z,21.35
2022-07-30T12:18:47.807Z,21.34
2022-07-30T12:21:17.423Z,21.26
2022-07-30T12:23:56.048Z,21.06
2022-07-30T12:26:27.147Z,21.02
2022-07-30T12:28:56.767Z,20.98
2022-07-30T12:31:27.168Z,20.85
2022-07-30T12:33:58.992Z,20.77
2022-07-30T12:36:32.891Z,20.77
2022-07-30T12:39:01.973Z,20.68
2022-07-30T12:41:52.176Z,20.58
2022-07-30T12:44:39.922Z,20.52
2022-07-30T12:47:22.011Z,20.49
2022-07-30T12:49:53.378Z,20.42
2022-07-30T12:52:28.699Z,20.42
2022-07-30T12:55:07.186Z,20.29
2022-07-30T12:57:55.833Z,20.30
2022-07-30T13:00:24.691Z,20.32
2022-07-30T13:02:55.384Z,20.39
2022-07-30T13:05:44.389Z,20.39
2022-07-30T13:08:12.942Z,20.33
2022-07-30T13:10:55.913Z,20.24
2022-07-30T13:13:24.761Z,20.15
2022-07-30T13:16:01.287Z,20.12
2022-07-30T13:18:32.115Z,20.06
2022-07-30T13:21:01.121Z,20.07
2022-07-30T13:23:30.875Z,19.97
2022-07-30T13:25:59.541Z,19.97
2022-07-30T13:28:28.426Z,19.99
2022-07-30T13:30:58.142Z,20.00
2022-07-30T13:33:27.164Z,19.94
2022-07-30T13:35:57.488Z,19.94
2022-07-30T13:38:26.488Z,19.93
2022-07-30T13:40:58.016Z,19.89
2022-07-30T13:43:32.047Z,19.91
2022-07-30T13:46:03.259Z,19.93
2022-07-30T13:48:32.113Z,19.96
2022-07-30T13:51:04.477Z,19.96
2022-07-30T13:53:33.508Z,19.94
2022-07-30T13:56:02.027Z,19.94
2022-07-30T13:58:35.732Z,19.96
2022-07-30T14:01:07.659Z,19.96
2022-07-30T14:03:36.625Z,19.94
2022-07-30T14:06:10.617Z,20.00
2022-07-30T14:08:40.099Z,20.04
2022-07-30T14:11:08.631Z,20.08
2022-07-30T14:13:38.132Z,20.14
2022-07-30T14:16:18.121Z,20.15
2022-07-30T14:18:55.872Z,20.20
2022-07-30T14:21:26.432Z,20.20
2022-07-30T14:23:55.235Z,20.16
2022-07-30T14:26:23.698Z,20.16
2022-07-30T14:28:52.184Z,20.09
2022-07-30T14:31:20.659Z,19.94
2022-07-30T14:33:49.078Z,19.86
2022-07-30T14:36:17.856Z,19.87
2022-07-30T14:38:47.967Z,19.83
2022-07-30T14:41:16.869Z,19.78
2022-07-30T14:43:45.348Z,19.68
2022-07-30T14:46:14.258Z,19.85
2022-07-30T14:48:42.760Z,19.88
2022-07-30T14:51:16.831Z,19.88
2022-07-30T14:53:53.805Z,20.05
2022-07-30T14:56:24.237Z,20.14
2022-07-30T14:58:55.735Z,20.18
2022-07-30T15:01:24.207Z,20.15
2022-07-30T15:03:52.737Z,20.14
2022-07-30T15:06:21.257Z,20.05
2022-07-30T15:08:51.153Z,20.09
2022-07-30T15:11:21.869Z,19.94
2022-07-30T15:13:50.862Z,19.91
2022-07-30T15:16:20.384Z,19.88
2022-07-30T15:18:48.790Z,19.61
2022-07-30T15:21:17.389Z,19.70
2022-07-30T15:23:45.925Z,19.81
2022-07-30T15:26:15.843Z,19.72
2022-07-30T15:28:44.854Z,19.85
2022-07-30T15:31:13.462Z,19.97
2022-07-30T15:33:43.413Z,20.06
2022-07-30T15:36:12.727Z,20.00
2022-07-30T15:38:41.218Z,20.02
2022-07-30T15:41:13.506Z,19.90
2022-07-30T15:43:43.634Z,19.79
2022-07-30T15:46:12.226Z,19.64
2022-07-30T15:48:40.825Z,19.39
2022-07-30T15:51:09.632Z,19.31
2022-07-30T15:53:38.113Z,19.27
2022-07-30T15:56:07.018Z,19.15
2022-07-30T15:58:37.431Z,18.98
2022-07-30T16:01:10.523Z,18.91
2022-07-30T16:03:39.059Z,18.90
2022-07-30T16:06:07.811Z,18.97
2022-07-30T16:08:36.341Z,18.85
2022-07-30T16:11:05.318Z,18.80
2022-07-30T16:13:33.742Z,18.85
2022-07-30T16:16:02.209Z,18.80
2022-07-30T16:18:32.105Z,18.77
2022-07-30T16:21:01.478Z,18.79
2022-07-30T16:23:36.509Z,18.65
2022-07-30T16:26:05.692Z,18.67
2022-07-30T16:28:34.306Z,18.70
2022-07-30T16:31:02.920Z,18.72
2022-07-30T16:33:33.031Z,18.60
2022-07-30T16:36:01.515Z,18.71
2022-07-30T16:38:30.037Z,18.70
2022-07-30T16:40:58.688Z,18.76
2022-07-30T16:43:27.178Z,18.75
2022-07-30T16:45:55.674Z,18.51
2022-07-30T16:48:24.349Z,18.40
2022-07-30T16:50:54.203Z,18.45
2022-07-30T16:53:23.057Z,18.33
2022-07-30T16:55:51.546Z,18.22
2022-07-30T16:58:21.322Z,18.22
2022-07-30T17:00:56.818Z,18.24
2022-07-30T17:03:25.775Z,18.30
2022-07-30T17:05:55.683Z,18.33
2022-07-30T17:08:24.854Z,18.34
2022-07-30T17:10:54.537Z,18.35
2022-07-30T17:13:27.218Z,18.32
2022-07-30T17:15:55.627Z,18.39
2022-07-30T17:18:24.113Z,18.39
2022-07-30T17:20:53.061Z,18.19
2022-07-30T17:23:23.089Z,18.17
2022-07-30T17:25:51.637Z,18.14
2022-07-30T17:28:21.779Z,18.17
2022-07-30T17:30:55.807Z,18.10
2022-07-30T17:33:25.246Z,18.11
2022-07-30T17:35:53.883Z,18.12
2022-07-30T17:38:24.097Z,18.07
2022-07-30T17:40:52.628Z,18.08
2022-07-30T17:43:23.956Z,18.14
2022-07-30T17:45:53.036Z,18.00
2022-07-30T17:48:21.990Z,18.00
2022-07-30T17:50:51.566Z,18.08
2022-07-30T17:53:20.121Z,18.13
2022-07-30T17:55:57.493Z,18.10
2022-07-30T17:58:27.090Z,18.11
2022-07-30T18:00:56.061Z,18.11
2022-07-30T18:03:24.765Z,18.15
2022-07-30T18:05:53.579Z,18.14
2022-07-30T18:08:23.063Z,18.13
2022-07-30T18:10:53.327Z,18.05
2022-07-30T18:13:26.763Z,18.05
2022-07-30T18:15:56.129Z,18.08
2022-07-30T18:18:24.917Z,18.09
2022-07-30T18:20:53.360Z,18.10
2022-07-30T18:23:22.756Z,18.12
2022-07-30T18:25:54.456Z,18.15
2022-07-30T18:28:23.466Z,18.09
2022-07-30T18:30:52.651Z,17.99
2022-07-30T18:33:21.539Z,17.91
2022-07-30T18:35:50.338Z,18.04
2022-07-30T18:38:19.174Z,18.02
2022-07-30T18:40:57.938Z,18.08
2022-07-30T18:43:29.035Z,18.05
2022-07-30T18:45:58.444Z,18.05
2022-07-30T18:48:27.891Z,17.98
2022-07-30T18:50:56.821Z,18.01
2022-07-30T18:53:25.319Z,18.05
2022-07-30T18:55:54.291Z,17.99
2022-07-30T18:58:23.435Z,17.93
2022-07-30T19:00:53.902Z,17.91
2022-07-30T19:03:23.270Z,17.96
2022-07-30T19:05:51.915Z,18.13
2022-07-30T19:08:20.412Z,18.23
2022-07-30T19:10:49.005Z,18.17
2022-07-30T19:13:17.587Z,18.02
2022-07-30T19:15:46.102Z,17.95
2022-07-30T19:18:16.013Z,17.98
2022-07-30T19:20:44.910Z,17.89
2022-07-30T19:23:13.901Z,17.99
2022-07-30T19:25:43.122Z,18.00
2022-07-30T19:28:14.050Z,18.02
2022-07-30T19:30:42.534Z,18.02
2022-07-30T19:33:15.574Z,18.06
2022-07-30T19:35:46.057Z,18.07
2022-07-30T19:38:22.036Z,18.09
2022-07-30T19:40:52.654Z,18.11
2022-07-30T19:43:23.948Z,18.05
2022-07-30T19:45:54.233Z,18.02
2022-07-30T19:48:29.383Z,18.06
2022-07-30T19:51:01.940Z,18.01
2022-07-30T19:53:31.278Z,18.01
2022-07-30T19:56:02.184Z,18.02
2022-07-30T19:58:32.621Z,18.01
2022-07-30T20:01:01.483Z,17.96
2022-07-30T20:03:31.859Z,17.95
2022-07-30T20:06:02.562Z,17.98
2022-07-30T20:08:31.570Z,17.94
2022-07-30T20:11:01.696Z,17.95
2022-07-30T20:13:45.310Z,17.95
2022-07-30T20:16:14.952Z,17.89
2022-07-30T20:18:45.829Z,17.86
2022-07-30T20:21:16.762Z,17.93
2022-07-30T20:23:47.223Z,17.86
2022-07-30T20:26:22.018Z,17.86
2022-07-30T20:28:52.878Z,17.83
2022-07-30T20:31:22.260Z,17.78
2022-07-30T20:33:50.897Z,17.72
2022-07-30T20:36:22.661Z,17.68
2022-07-30T20:38:51.448Z,17.66
2022-07-30T20:41:20.097Z,17.59
2022-07-30T20:43:52.561Z,17.59
2022-07-30T20:46:23.821Z,17.58
2022-07-30T20:48:53.558Z,17.60
2022-07-30T20:51:33.689Z,17.57
2022-07-30T20:54:02.728Z,17.50
2022-07-30T20:56:31.351Z,17.47
2022-07-30T20:58:59.831Z,17.49
2022-07-30T21:01:30.706Z,17.51
2022-07-30T21:03:59.677Z,17.49
2022-07-30T21:06:29.789Z,17.42
2022-07-30T21:08:58.706Z,17.41
2022-07-30T21:11:27.987Z,17.39
2022-07-30T21:13:56.608Z,17.41
2022-07-30T21:16:30.628Z,17.37
2022-07-30T21:18:59.212Z,17.41
2022-07-30T21:21:38.586Z,17.72
2022-07-30T21:24:15.677Z,17.60
2022-07-30T21:26:46.646Z,17.52
2022-07-30T21:29:15.229Z,17.49
2022-07-30T21:32:00.465Z,17.42
2022-07-30T21:34:36.032Z,17.38
2022-07-30T21:37:12.985Z,17.42
2022-07-30T21:39:44.088Z,17.32
2022-07-30T21:42:12.967Z,17.37
2022-07-30T21:44:41.703Z,17.23
2022-07-30T21:47:10.751Z,17.22
2022-07-30T21:49:40.252Z,17.11
2022-07-30T21:52:15.117Z,17.02
2022-07-30T21:54:50.434Z,17.10
2022-07-30T21:57:26.203Z,17.06
2022-07-30T21:59:55.606Z,17.12
2022-07-30T22:02:24.186Z,17.03
2022-07-30T22:04:54.085Z,17.02
2022-07-30T22:07:24.966Z,17.05
2022-07-30T22:09:55.357Z,17.01
2022-07-30T22:12:25.907Z,16.99
2022-07-30T22:14:57.854Z,16.91
2022-07-30T22:17:37.254Z,16.89
2022-07-30T22:20:14.804Z,16.92
2022-07-30T22:22:44.808Z,16.87
2022-07-30T22:25:14.195Z,16.88
2022-07-30T22:27:56.596Z,16.86
2022-07-30T22:30:27.491Z,16.83
2022-07-30T22:32:56.261Z,16.86
2022-07-30T22:35:32.391Z,16.82
2022-07-30T22:38:04.399Z,16.76
2022-07-30T22:40:33.507Z,16.77
2022-07-30T22:43:07.785Z,16.77
2022-07-30T22:45:48.139Z,16.80
2022-07-30T22:48:19.316Z,16.78
2022-07-30T22:50:52.306Z,16.73
2022-07-30T22:54:10.806Z,16.70
2022-07-30T22:56:14.324Z,16.77
2022-07-30T22:58:44.779Z,16.72
2022-07-30T23:01:17.307Z,16.72
2022-07-30T23:03:46.247Z,16.73
2022-07-30T23:06:16.808Z,16.68
2022-07-30T23:08:50.785Z,16.71
2022-07-30T23:11:19.487Z,16.67
2022-07-30T23:13:49.319Z,16.71
2022-07-30T23:16:17.848Z,16.69
2022-07-30T23:18:46.408Z,16.68
2022-07-30T23:21:15.529Z,16.76
2022-07-30T23:23:44.122Z,16.74
2022-07-30T23:26:14.314Z,16.70
2022-07-30T23:28:43.116Z,16.71
2022-07-30T23:31:12.200Z,16.73
2022-07-30T23:33:41.401Z,16.72
2022-07-30T23:36:11.013Z,16.73
2022-07-30T23:38:39.651Z,16.78
2022-07-30T23:41:08.090Z,16.81
2022-07-30T23:43:38.524Z,16.79
2022-07-30T23:46:10.899Z,16.76
2022-07-30T23:48:39.826Z,16.81
2022-07-30T23:51:08.426Z,16.69
2022-07-30T23:53:37.068Z,16.71
2022-07-30T23:56:06.218Z,16.77
2022-07-30T23:58:34.868Z,16.80
